createdAt,value
2018-01-08T00:00:09.979Z,61.30
2018-01-08T00:02:42.513Z,61.20
2018-01-08T00:05:15.024Z,60.98
2018-01-08T00:07:47.511Z,61.37
2018-01-08T00:10:20.013Z,61.97
2018-01-08T00:12:52.519Z,62.15
2018-01-08T00:15:25.735Z,62.06
2018-01-08T00:17:59.412Z,62.32
2018-01-08T00:20:32.354Z,61.80
2018-01-08T00:23:05.611Z,62.11
2018-01-08T00:25:38.837Z,61.99
2018-01-08T00:28:11.457Z,61.94
2018-01-08T00:30:43.992Z,61.71
2018-01-08T00:33:16.497Z,61.96
2018-01-08T00:35:49.005Z,61.77
2018-01-08T00:38:21.508Z,62.10
2018-01-08T00:40:54.198Z,62.01
2018-01-08T00:43:27.176Z,62.30
2018-01-08T00:46:00.206Z,62.18
2018-01-08T00:48:32.897Z,59.96
2018-01-08T00:51:05.634Z,62.05
2018-01-08T00:53:38.385Z,62.16
2018-01-08T00:56:11.047Z,61.95
2018-01-08T00:58:43.693Z,62.29
2018-01-08T01:01:16.207Z,62.54
2018-01-08T01:03:48.707Z,62.37
2018-01-08T01:06:21.210Z,62.23
2018-01-08T01:08:53.865Z,62.53
2018-01-08T01:11:27.813Z,62.20
2018-01-08T01:14:01.194Z,61.69
2018-01-08T01:16:34.002Z,62.63
2018-01-08T01:19:06.684Z,62.72
2018-01-08T01:21:39.442Z,63.27
2018-01-08T01:24:12.320Z,62.87
2018-01-08T01:26:44.877Z,62.55
2018-01-08T01:29:17.405Z,63.01
2018-01-08T01:31:49.983Z,62.40
2018-01-08T01:34:22.498Z,62.27
2018-01-08T01:36:55.836Z,61.88
2018-01-08T01:39:28.906Z,62.01
2018-01-08T01:42:01.900Z,62.26
2018-01-08T01:44:34.566Z,61.84
2018-01-08T01:47:07.257Z,61.45
2018-01-08T01:49:40.189Z,62.09
2018-01-08T01:52:12.766Z,62.02
2018-01-08T01:54:45.280Z,61.89
2018-01-08T01:57:17.768Z,61.82
2018-01-08T01:59:50.267Z,61.66
2018-01-08T02:02:22.764Z,61.98
2018-01-08T02:04:56.024Z,62.12
2018-01-08T02:07:28.898Z,61.97
2018-01-08T02:10:01.651Z,62.19
2018-01-08T02:12:34.379Z,62.11
2018-01-08T02:15:07.094Z,61.70
2018-01-08T02:17:39.939Z,62.05
2018-01-08T02:20:12.558Z,61.99
2018-01-08T02:22:45.054Z,61.95
2018-01-08T02:25:17.579Z,61.64
2018-01-08T02:27:50.078Z,61.72
2018-01-08T02:30:22.589Z,61.53
2018-01-08T02:32:55.512Z,61.67
2018-01-08T02:35:28.429Z,61.99
2018-01-08T02:38:01.279Z,61.93
2018-01-08T02:40:33.961Z,62.34
2018-01-08T02:43:06.802Z,62.62
2018-01-08T02:45:39.393Z,62.95
2018-01-08T02:48:11.973Z,62.88
2018-01-08T02:50:44.504Z,62.97
2018-01-08T02:53:16.984Z,62.50
2018-01-08T02:55:49.497Z,62.49
2018-01-08T02:58:21.992Z,62.69
2018-01-08T03:00:54.646Z,62.50
2018-01-08T03:03:27.474Z,62.60
2018-01-08T03:06:00.427Z,62.97
2018-01-08T03:08:33.110Z,63.40
2018-01-08T03:11:06.036Z,63.29
2018-01-08T03:13:38.613Z,63.22
2018-01-08T03:16:11.176Z,62.79
2018-01-08T03:18:43.676Z,62.74
2018-01-08T03:21:16.177Z,62.67
2018-01-08T03:23:48.663Z,62.90
2018-01-08T03:26:21.174Z,62.58
2018-01-08T03:28:54.330Z,62.41
2018-01-08T03:31:27.063Z,61.83
2018-01-08T03:34:00.454Z,61.85
2018-01-08T03:36:33.082Z,61.75
2018-01-08T03:39:05.755Z,61.44
2018-01-08T03:41:38.382Z,61.39
2018-01-08T03:44:10.892Z,61.49
2018-01-08T03:46:44.246Z,61.62
2018-01-08T03:49:17.003Z,61.62
2018-01-08T03:51:49.804Z,61.66
2018-01-08T03:54:22.524Z,61.60
2018-01-08T03:56:55.952Z,61.72
2018-01-08T03:59:31.227Z,61.21
2018-01-08T04:02:03.944Z,61.22
2018-01-08T04:04:36.680Z,61.21
2018-01-08T04:07:09.304Z,61.50
2018-01-08T04:09:42.158Z,61.24
2018-01-08T04:12:14.659Z,61.06
2018-01-08T04:14:47.159Z,61.58
2018-01-08T04:17:19.677Z,61.39
2018-01-08T04:19:52.181Z,61.34
2018-01-08T04:22:25.078Z,61.53
2018-01-08T04:24:57.929Z,61.65
2018-01-08T04:27:30.656Z,61.76
2018-01-08T04:30:03.353Z,61.71
2018-01-08T04:32:35.965Z,61.71
2018-01-08T04:35:08.565Z,61.77
2018-01-08T04:37:41.127Z,61.70
2018-01-08T04:40:13.673Z,61.45
2018-01-08T04:42:46.211Z,61.41
2018-01-08T04:45:18.713Z,61.09
2018-01-08T04:47:51.207Z,60.93
2018-01-08T04:50:25.016Z,61.54
2018-01-08T04:52:57.902Z,61.65
2018-01-08T04:55:31.173Z,61.78
2018-01-08T04:58:03.776Z,61.07
2018-01-08T05:00:36.560Z,61.64
2018-01-08T05:03:09.229Z,61.37
2018-01-08T05:05:43.935Z,61.47
2018-01-08T05:08:16.516Z,61.53
2018-01-08T05:10:49.037Z,61.36
2018-01-08T05:13:21.638Z,61.39
2018-01-08T05:15:54.555Z,61.54
2018-01-08T05:18:32.662Z,61.57
2018-01-08T05:21:05.434Z,61.30
2018-01-08T05:23:38.024Z,61.55
2018-01-08T05:26:10.601Z,61.74
2018-01-08T05:28:43.108Z,61.73
2018-01-08T05:31:15.645Z,60.27
2018-01-08T05:33:48.223Z,61.40
2018-01-08T05:36:20.743Z,61.65
2018-01-08T05:38:53.281Z,61.76
2018-01-08T05:41:26.560Z,61.55
2018-01-08T05:43:59.742Z,61.57
2018-01-08T05:46:32.905Z,60.39
2018-01-08T05:49:05.461Z,61.71
2018-01-08T05:51:38.004Z,61.85
2018-01-08T05:54:10.563Z,61.57
2018-01-08T05:56:43.093Z,61.51
2018-01-08T05:59:15.583Z,60.75
2018-01-08T06:01:48.204Z,61.18
2018-01-08T06:04:20.744Z,60.91
2018-01-08T06:06:53.353Z,61.34
2018-01-08T06:09:26.120Z,60.93
2018-01-08T06:12:00.053Z,61.24
2018-01-08T06:14:33.253Z,61.16
2018-01-08T06:17:05.883Z,60.87
2018-01-08T06:19:38.623Z,61.26
2018-01-08T06:22:11.162Z,61.66
2018-01-08T06:24:43.664Z,61.91
2018-01-08T06:27:16.180Z,61.87
2018-01-08T06:29:48.671Z,62.09
2018-01-08T06:32:21.194Z,61.60
2018-01-08T06:34:53.891Z,61.74
2018-01-08T06:37:28.558Z,61.41
2018-01-08T06:40:02.154Z,61.33
2018-01-08T06:42:34.758Z,61.14
2018-01-08T06:45:07.346Z,60.81
2018-01-08T06:47:39.911Z,61.11
2018-01-08T06:50:12.422Z,61.23
2018-01-08T06:52:44.961Z,61.12
2018-01-08T06:55:17.464Z,60.92
2018-01-08T06:57:49.973Z,61.36
2018-01-08T07:00:22.466Z,61.20
2018-01-08T07:02:55.179Z,61.18
2018-01-08T07:05:28.020Z,61.14
2018-01-08T07:08:00.747Z,60.80
2018-01-08T07:10:33.409Z,61.19
2018-01-08T07:13:06.131Z,61.17
2018-01-08T07:15:38.728Z,61.01
2018-01-08T07:18:13.201Z,61.30
2018-01-08T07:20:45.716Z,61.04
2018-01-08T07:23:18.239Z,60.93
2018-01-08T07:25:50.737Z,60.96
2018-01-08T07:28:23.786Z,60.84
2018-01-08T07:30:57.126Z,61.05
2018-01-08T07:33:30.006Z,60.95
2018-01-08T07:36:02.815Z,61.02
2018-01-08T07:38:35.389Z,60.69
2018-01-08T07:41:08.354Z,60.96
2018-01-08T07:43:40.863Z,61.04
2018-01-08T07:46:13.510Z,60.89
2018-01-08T07:48:46.030Z,60.69
2018-01-08T07:51:18.522Z,60.27
2018-01-08T07:53:51.020Z,60.93
2018-01-08T07:56:25.229Z,60.43
2018-01-08T07:58:58.042Z,61.00
2018-01-08T08:01:30.829Z,60.71
2018-01-08T08:04:13.871Z,60.33
2018-01-08T08:06:46.403Z,60.04
2018-01-08T08:09:18.906Z,60.41
2018-01-08T08:11:51.401Z,60.26
2018-01-08T08:14:25.732Z,60.84
2018-01-08T08:16:58.740Z,60.71
2018-01-08T08:19:31.565Z,60.63
2018-01-08T08:22:04.273Z,60.59
2018-01-08T08:24:36.849Z,59.47
2018-01-08T08:27:11.399Z,60.54
2018-01-08T08:29:43.922Z,60.73
2018-01-08T08:32:16.413Z,59.33
2018-01-08T08:34:48.931Z,59.91
2018-01-08T08:37:21.428Z,60.14
2018-01-08T08:39:55.554Z,59.43
2018-01-08T08:42:28.341Z,59.66
2018-01-08T08:45:01.046Z,59.52
2018-01-08T08:47:33.747Z,58.62
2018-01-08T08:50:06.365Z,57.83
2018-01-08T08:52:38.916Z,58.97
2018-01-08T08:55:11.476Z,59.07
2018-01-08T08:57:43.972Z,57.88
2018-01-08T09:00:16.492Z,58.74
2018-01-08T09:02:48.976Z,58.24
2018-01-08T09:05:21.516Z,58.22
2018-01-08T09:07:54.085Z,54.87
2018-01-08T09:10:27.392Z,57.11
2018-01-08T09:13:00.646Z,54.59
2018-01-08T09:15:33.280Z,57.30
2018-01-08T09:18:05.981Z,55.75
2018-01-08T09:20:38.690Z,57.27
2018-01-08T09:23:11.219Z,57.52
2018-01-08T09:25:43.742Z,54.48
2018-01-08T09:28:16.236Z,56.30
2018-01-08T09:30:48.740Z,53.80
2018-01-08T09:33:21.219Z,52.58
2018-01-08T09:35:53.901Z,52.80
2018-01-08T09:38:27.803Z,55.17
2018-01-08T09:41:00.628Z,53.29
2018-01-08T09:43:33.245Z,51.93
2018-01-08T09:46:06.356Z,50.69
2018-01-08T09:48:39.394Z,53.16
2018-01-08T09:51:12.088Z,51.54
2018-01-08T09:53:44.575Z,52.19
2018-01-08T09:56:17.104Z,53.06
2018-01-08T09:58:49.593Z,51.25
2018-01-08T10:01:22.097Z,48.90
2018-01-08T10:04:06.539Z,47.62
2018-01-08T10:06:50.849Z,47.97
2018-01-08T10:09:35.310Z,50.72
2018-01-08T10:12:19.651Z,50.44
2018-01-08T10:15:04.155Z,45.70
2018-01-08T10:17:48.475Z,49.04
2018-01-08T10:20:20.962Z,48.05
2018-01-08T10:22:53.463Z,45.25
2018-01-08T10:25:29.032Z,47.53
2018-01-08T10:28:01.749Z,47.54
2018-01-08T10:30:34.532Z,45.47
2018-01-08T10:33:07.424Z,43.61
2018-01-08T10:35:40.400Z,45.67
2018-01-08T10:38:12.972Z,43.14
2018-01-08T10:40:45.495Z,45.54
2018-01-08T10:43:23.580Z,45.58
2018-01-08T10:46:02.777Z,41.86
2018-01-08T10:48:41.531Z,44.14
2018-01-08T10:51:19.635Z,44.28
2018-01-08T10:53:52.148Z,43.90
2018-01-08T10:56:24.820Z,44.65
2018-01-08T10:58:57.944Z,40.84
2018-01-08T11:01:36.563Z,44.98
2018-01-08T11:04:09.462Z,43.18
2018-01-08T11:06:42.367Z,39.74
2018-01-08T11:09:14.960Z,44.15
2018-01-08T11:11:47.477Z,40.17
2018-01-08T11:14:19.981Z,44.00
2018-01-08T11:16:52.467Z,43.63
2018-01-08T11:19:25.493Z,42.25
2018-01-08T11:21:58.405Z,42.41
2018-01-08T11:24:31.666Z,38.01
2018-01-08T11:27:04.455Z,42.20
2018-01-08T11:29:37.310Z,38.25
2018-01-08T11:32:10.176Z,39.37
2018-01-08T11:34:43.108Z,41.50
2018-01-08T11:37:15.644Z,39.21
2018-01-08T11:39:48.160Z,39.61
2018-01-08T11:42:20.648Z,39.33
2018-01-08T11:44:53.171Z,39.97
2018-01-08T11:47:30.072Z,38.21
2018-01-08T11:50:03.770Z,39.90
2018-01-08T11:52:36.498Z,37.11
2018-01-08T11:55:09.372Z,36.99
2018-01-08T11:57:42.343Z,36.41
2018-01-08T12:00:14.888Z,37.27
2018-01-08T12:02:47.384Z,38.47
2018-01-08T12:05:19.885Z,37.79
2018-01-08T12:07:52.378Z,37.13
2018-01-08T12:10:27.333Z,37.63
2018-01-08T12:13:02.719Z,37.06
2018-01-08T12:15:35.630Z,37.59
2018-01-08T12:18:08.977Z,35.97
2018-01-08T12:20:42.275Z,37.17
2018-01-08T12:23:14.873Z,36.25
2018-01-08T12:25:47.390Z,36.15
2018-01-08T12:28:19.867Z,37.18
2018-01-08T12:30:52.416Z,34.82
2018-01-08T12:33:28.054Z,36.02
2018-01-08T12:36:03.199Z,34.47
2018-01-08T12:38:36.004Z,35.98
2018-01-08T12:41:08.814Z,35.33
2018-01-08T12:43:42.976Z,35.62
2018-01-08T12:46:15.526Z,35.90
2018-01-08T12:48:47.999Z,35.22
2018-01-08T12:51:20.514Z,35.05
2018-01-08T12:53:53.006Z,35.96
2018-01-08T12:56:27.433Z,35.87
2018-01-08T12:59:00.536Z,35.50
2018-01-08T13:01:33.209Z,36.16
2018-01-08T13:04:06.100Z,35.69
2018-01-08T13:06:38.797Z,35.30
2018-01-08T13:09:11.568Z,35.13
2018-01-08T13:11:44.118Z,36.59
2018-01-08T13:14:16.617Z,35.13
2018-01-08T13:16:49.130Z,35.53
2018-01-08T13:19:21.620Z,35.90
2018-01-08T13:21:55.202Z,35.69
2018-01-08T13:24:29.396Z,34.84
2018-01-08T13:27:03.030Z,35.57
2018-01-08T13:29:35.758Z,34.31
2018-01-08T13:32:08.472Z,35.66
2018-01-08T13:34:41.449Z,34.80
2018-01-08T13:37:14.022Z,35.50
2018-01-08T13:39:46.603Z,37.13
2018-01-08T13:42:19.099Z,34.92
2018-01-08T13:44:51.609Z,35.36
2018-01-08T13:47:24.243Z,36.50
2018-01-08T13:49:57.785Z,35.19
2018-01-08T13:52:31.901Z,35.51
2018-01-08T13:55:04.677Z,36.70
2018-01-08T13:57:37.685Z,35.25
2018-01-08T14:00:10.666Z,35.81
2018-01-08T14:02:43.251Z,35.20
2018-01-08T14:05:15.763Z,35.50
2018-01-08T14:07:48.266Z,34.52
2018-01-08T14:10:20.794Z,35.12
2018-01-08T14:12:53.308Z,36.58
2018-01-08T14:15:27.108Z,35.21
2018-01-08T14:18:00.169Z,35.45
2018-01-08T14:20:33.135Z,34.98
2018-01-08T14:23:05.828Z,35.14
2018-01-08T14:25:38.679Z,35.64
2018-01-08T14:28:11.311Z,34.66
2018-01-08T14:30:44.048Z,34.47
2018-01-08T14:33:16.552Z,35.31
2018-01-08T14:35:49.076Z,35.24
2018-01-08T14:38:21.562Z,34.94
2018-01-08T14:40:54.384Z,34.89
2018-01-08T14:43:27.382Z,34.78
2018-01-08T14:46:02.792Z,34.58
2018-01-08T14:48:35.452Z,35.31
2018-01-08T14:51:08.358Z,33.67
2018-01-08T14:53:41.245Z,34.86
2018-01-08T14:56:13.900Z,34.74
2018-01-08T14:58:46.464Z,34.54
2018-01-08T15:01:18.980Z,35.33
2018-01-08T15:03:51.484Z,35.39
2018-01-08T15:06:27.508Z,35.56
2018-01-08T15:09:06.336Z,36.11
2018-01-08T15:11:43.971Z,34.99
2018-01-08T15:14:19.870Z,35.49
2018-01-08T15:16:52.419Z,34.46
2018-01-08T15:19:28.276Z,34.98
2018-01-08T15:22:02.314Z,35.11
2018-01-08T15:24:36.142Z,36.96
2018-01-08T15:27:09.998Z,36.02
2018-01-08T15:29:42.719Z,36.38
2018-01-08T15:32:15.388Z,35.82
2018-01-08T15:34:47.939Z,35.85
2018-01-08T15:37:20.471Z,35.39
2018-01-08T15:39:53.001Z,35.84
2018-01-08T15:42:27.138Z,35.94
2018-01-08T15:45:01.269Z,36.73
2018-01-08T15:47:35.318Z,35.83
2018-01-08T15:50:11.528Z,35.07
2018-01-08T15:52:44.294Z,36.89
2018-01-08T15:55:16.907Z,37.06
2018-01-08T15:57:49.438Z,35.23
2018-01-08T16:00:21.958Z,36.39
2018-01-08T16:02:57.520Z,37.31
2018-01-08T16:05:35.463Z,36.59
2018-01-08T16:08:14.231Z,36.89
2018-01-08T16:10:46.887Z,37.34
2018-01-08T16:13:19.385Z,37.22
2018-01-08T16:15:51.914Z,36.85
2018-01-08T16:18:27.956Z,37.03
2018-01-08T16:21:02.680Z,36.63
2018-01-08T16:23:36.246Z,36.85
2018-01-08T16:26:09.367Z,36.81
2018-01-08T16:28:43.043Z,36.57
2018-01-08T16:31:17.125Z,37.64
2018-01-08T16:33:49.702Z,37.43
2018-01-08T16:36:22.262Z,37.69
2018-01-08T16:38:54.772Z,37.32
2018-01-08T16:41:27.335Z,36.93
2018-01-08T16:44:01.618Z,37.07
2018-01-08T16:46:38.344Z,36.12
2018-01-08T16:49:15.482Z,37.50
2018-01-08T16:51:49.053Z,36.42
2018-01-08T16:54:21.664Z,36.64
2018-01-08T16:56:55.297Z,37.30
2018-01-08T16:59:29.472Z,38.01
2018-01-08T17:02:13.083Z,36.50
2018-01-08T17:04:47.112Z,37.11
2018-01-08T17:07:20.646Z,36.20
2018-01-08T17:09:53.203Z,35.59
2018-01-08T17:12:25.792Z,36.52
2018-01-08T17:14:59.420Z,37.59
2018-01-08T17:17:34.181Z,37.19
2018-01-08T17:20:14.330Z,37.88
2018-01-08T17:22:47.414Z,37.67
2018-01-08T17:25:19.958Z,37.21
2018-01-08T17:27:52.518Z,37.35
2018-01-08T17:30:25.023Z,38.17
2018-01-08T17:32:57.564Z,36.79
2018-01-08T17:35:31.963Z,36.78
2018-01-08T17:38:07.598Z,36.91
2018-01-08T17:40:46.738Z,37.28
2018-01-08T17:43:19.404Z,36.76
2018-01-08T17:45:51.924Z,36.92
2018-01-08T17:48:24.454Z,36.77
2018-01-08T17:50:56.954Z,37.25
2018-01-08T17:53:39.003Z,36.80
2018-01-08T17:56:12.879Z,37.74
2018-01-08T18:01:27.380Z,37.60
2018-01-08T18:04:17.961Z,37.76
2018-01-08T18:06:50.675Z,37.12
2018-01-08T18:09:23.180Z,37.57
2018-01-08T18:11:55.700Z,37.61
2018-01-08T18:14:28.249Z,37.37
2018-01-08T18:17:18.910Z,37.80
2018-01-08T18:19:51.572Z,37.25
2018-01-08T18:22:24.082Z,37.36
2018-01-08T18:24:56.599Z,37.23
2018-01-08T18:27:30.892Z,37.45
2018-01-08T18:30:10.552Z,37.59
2018-01-08T18:32:44.185Z,37.38
2018-01-08T18:35:19.337Z,37.30
2018-01-08T18:37:51.953Z,37.31
2018-01-08T18:40:24.443Z,37.83
2018-01-08T18:42:56.965Z,37.99
2018-01-08T18:48:09.092Z,38.00
2018-01-08T18:50:43.582Z,37.71
2018-01-08T18:53:18.476Z,38.64
2018-01-08T18:55:51.031Z,38.56
2018-01-08T18:58:23.555Z,39.15
2018-01-08T19:00:56.050Z,37.73
2018-01-08T19:06:15.444Z,39.00
2018-01-08T19:08:48.404Z,39.42
2018-01-08T19:11:20.889Z,39.12
2018-01-08T19:13:53.407Z,38.67
2018-01-08T19:16:25.921Z,39.56
2018-01-08T19:18:59.870Z,39.11
2018-01-08T19:21:35.126Z,38.81
2018-01-08T19:24:12.956Z,40.22
2018-01-08T19:26:48.361Z,39.21
2018-01-08T19:32:17.529Z,39.59
2018-01-08T19:34:50.099Z,39.06
2018-01-08T19:37:22.855Z,39.27
2018-01-08T19:39:55.376Z,39.02
2018-01-08T19:42:28.392Z,38.88
2018-01-08T19:45:06.502Z,38.94
2018-01-08T19:47:43.005Z,38.99
2018-01-08T19:50:16.575Z,39.07
2018-01-08T19:52:49.596Z,38.70
2018-01-08T19:55:22.105Z,40.05
2018-01-08T19:57:54.629Z,39.13
2018-01-08T20:00:27.163Z,39.75
2018-01-08T20:03:18.682Z,39.31
2018-01-08T20:05:51.407Z,39.91
2018-01-08T20:08:23.961Z,40.15
2018-01-08T20:10:56.461Z,40.00
2018-01-08T20:13:32.915Z,38.60
2018-01-08T20:16:13.173Z,40.07
2018-01-08T20:18:48.384Z,39.47
2018-01-08T20:21:20.979Z,39.31
2018-01-08T20:23:53.533Z,39.86
2018-01-08T20:26:26.158Z,40.60
2018-01-08T20:29:00.453Z,39.86
2018-01-08T20:31:35.358Z,40.42
2018-01-08T20:34:19.163Z,40.43
2018-01-08T20:36:53.265Z,39.90
2018-01-08T20:39:28.087Z,40.03
2018-01-08T20:42:03.309Z,40.12
2018-01-08T20:44:37.297Z,40.04
2018-01-08T20:47:19.321Z,41.14
2018-01-08T20:49:51.902Z,40.42
2018-01-08T20:52:24.459Z,40.11
2018-01-08T20:54:57.059Z,39.72
2018-01-08T20:57:30.699Z,39.99
2018-01-08T21:00:06.941Z,41.16
2018-01-08T21:02:40.702Z,40.13
2018-01-08T21:05:18.983Z,41.14
2018-01-08T21:07:51.626Z,40.42
2018-01-08T21:10:24.159Z,40.51
2018-01-08T21:12:56.691Z,40.39
2018-01-08T21:15:40.434Z,40.51
2018-01-08T21:18:15.045Z,40.51
2018-01-08T21:20:51.021Z,40.51
2018-01-08T21:23:23.683Z,41.24
2018-01-08T21:25:56.163Z,41.69
2018-01-08T21:28:32.126Z,40.54
2018-01-08T21:31:19.284Z,41.19
2018-01-08T21:33:52.139Z,40.33
2018-01-08T21:36:24.966Z,40.58
2018-01-08T21:38:57.575Z,40.93
2018-01-08T21:41:32.541Z,40.34
2018-01-08T21:44:08.080Z,40.40
2018-01-08T21:46:41.908Z,40.93
2018-01-08T21:49:15.238Z,41.58
2018-01-08T21:51:50.048Z,40.98
2018-01-08T21:54:22.615Z,40.47
2018-01-08T21:56:55.126Z,41.22
2018-01-08T21:59:27.649Z,40.86
2018-01-08T22:04:49.311Z,41.10
2018-01-08T22:07:21.946Z,40.91
2018-01-08T22:09:54.465Z,41.02
2018-01-08T22:12:27.038Z,41.03
2018-01-08T22:15:02.553Z,40.81
2018-01-08T22:17:37.292Z,41.53
2018-01-08T22:20:16.577Z,40.75
2018-01-08T22:22:49.532Z,40.83
2018-01-08T22:25:22.030Z,40.96
2018-01-08T22:27:54.736Z,40.98
2018-01-08T22:30:29.977Z,41.53
2018-01-08T22:33:04.627Z,40.51
2018-01-08T22:35:39.212Z,40.52
2018-01-08T22:38:15.775Z,40.04
2018-01-08T22:40:48.505Z,40.49
2018-01-08T22:43:21.034Z,40.54
2018-01-08T22:45:53.533Z,40.67
2018-01-08T22:48:27.525Z,40.39
2018-01-08T22:51:19.179Z,39.62
2018-01-08T22:53:52.050Z,40.52
2018-01-08T22:56:24.599Z,40.74
2018-01-08T22:59:00.156Z,40.40
2018-01-08T23:01:39.585Z,40.51
2018-01-08T23:04:15.072Z,40.98
2018-01-08T23:06:48.594Z,40.55
2018-01-08T23:09:21.119Z,41.71
2018-01-08T23:11:53.617Z,41.08
2018-01-08T23:14:26.642Z,40.87
2018-01-08T23:17:10.164Z,40.21
2018-01-08T23:19:44.270Z,40.11
2018-01-08T23:22:16.981Z,40.44
2018-01-08T23:24:49.542Z,41.01
2018-01-08T23:27:22.023Z,40.31
2018-01-08T23:29:54.963Z,40.75
2018-01-08T23:32:34.483Z,39.58
2018-01-08T23:35:08.493Z,39.76
2018-01-08T23:37:44.354Z,40.08
2018-01-08T23:40:17.088Z,41.02
2018-01-08T23:42:49.656Z,40.15
2018-01-08T23:45:22.185Z,40.03
2018-01-08T23:47:55.026Z,40.16
2018-01-08T23:50:43.283Z,40.23
2018-01-08T23:53:15.823Z,40.64
2018-01-08T23:55:48.346Z,41.15
2018-01-08T23:58:20.869Z,40.55
